sensor_id;sensor_type;location;lat;lon;timestamp;pressure;altitude;pressure_sealevel;temperature;humidity
61963;BME280;47927;42.646;23.096;2023-04-03T00:00:56;91466.66;;;5.99;57.42
61963;BME280;47927;42.646;23.096;2023-04-03T00:03:22;91452.69;;;6.03;57.20
61963;BME280;47927;42.646;23.096;2023-04-03T00:05:48;91445.00;;;5.84;57.63
61963;BME280;47927;42.646;23.096;2023-04-03T00:08:14;91513.84;;;6.19;57.96
61963;BME280;47927;42.646;23.096;2023-04-03T00:10:40;91511.00;;;6.01;58.77
61963;BME280;47927;42.646;23.096;2023-04-03T00:13:06;91455.09;;;5.46;58.90
61963;BME280;47927;42.646;23.096;2023-04-03T00:15:32;91512.84;;;5.77;59.36
61963;BME280;47927;42.646;23.096;2023-04-03T00:17:58;91508.72;;;5.96;58.91
61963;BME280;47927;42.646;23.096;2023-04-03T00:20:24;91500.75;;;5.62;59.27
61963;BME280;47927;42.646;23.096;2023-04-03T00:22:49;91514.41;;;5.39;60.63
61963;BME280;47927;42.646;23.096;2023-04-03T00:25:15;91516.25;;;5.19;61.36
61963;BME280;47927;42.646;23.096;2023-04-03T00:27:41;91519.78;;;5.11;61.87
61963;BME280;47927;42.646;23.096;2023-04-03T00:30:08;91514.13;;;5.25;61.67
61963;BME280;47927;42.646;23.096;2023-04-03T00:32:35;91511.81;;;5.20;61.44
61963;BME280;47927;42.646;23.096;2023-04-03T00:35:01;91515.63;;;5.26;61.55
61963;BME280;47927;42.646;23.096;2023-04-03T00:37:26;91516.31;;;5.42;61.08
61963;BME280;47927;42.646;23.096;2023-04-03T00:39:52;91514.13;;;5.06;62.17
61963;BME280;47927;42.646;23.096;2023-04-03T00:42:19;91513.94;;;5.34;61.50
61963;BME280;47927;42.646;23.096;2023-04-03T00:47:14;91490.09;;;5.21;60.91
61963;BME280;47927;42.646;23.096;2023-04-03T00:49:41;91512.06;;;5.54;60.78
61963;BME280;47927;42.646;23.096;2023-04-03T00:52:13;91510.94;;;5.74;60.24
61963;BME280;47927;42.646;23.096;2023-04-03T00:54:41;91516.16;;;5.78;59.95
61963;BME280;47927;42.646;23.096;2023-04-03T00:57:08;91520.09;;;6.14;59.07
61963;BME280;47927;42.646;23.096;2023-04-03T00:59:37;91511.94;;;6.38;57.71
61963;BME280;47927;42.646;23.096;2023-04-03T01:02:03;91455.50;;;6.21;57.15
61963;BME280;47927;42.646;23.096;2023-04-03T01:04:38;91507.25;;;6.48;56.96
61963;BME280;47927;42.646;23.096;2023-04-03T01:07:26;91514.38;;;6.54;56.70
61963;BME280;47927;42.646;23.096;2023-04-03T01:09:57;91509.50;;;6.49;56.95
61963;BME280;47927;42.646;23.096;2023-04-03T01:12:24;91509.94;;;6.55;56.29
61963;BME280;47927;42.646;23.096;2023-04-03T01:14:53;91470.25;;;6.17;56.77
61963;BME280;47927;42.646;23.096;2023-04-03T01:17:27;91502.00;;;6.41;56.79
61963;BME280;47927;42.646;23.096;2023-04-03T01:28:14;91507.75;;;6.30;58.79
61963;BME280;47927;42.646;23.096;2023-04-03T01:30:53;91508.59;;;6.11;59.59
61963;BME280;47927;42.646;23.096;2023-04-03T01:33:22;91497.94;;;6.16;59.15
61963;BME280;47927;42.646;23.096;2023-04-03T01:35:48;91412.59;;;5.67;58.77
61963;BME280;47927;42.646;23.096;2023-04-03T01:38:13;91505.41;;;6.48;58.48
61963;BME280;47927;42.646;23.096;2023-04-03T01:40:40;91489.53;;;6.50;58.28
61963;BME280;47927;42.646;23.096;2023-04-03T01:43:06;91505.25;;;6.94;57.68
61963;BME280;47927;42.646;23.096;2023-04-03T01:45:31;91501.25;;;7.00;57.14
61963;BME280;47927;42.646;23.096;2023-04-03T01:47:57;91502.75;;;7.01;56.91
61963;BME280;47927;42.646;23.096;2023-04-03T01:50:24;91503.38;;;6.91;57.24
61963;BME280;47927;42.646;23.096;2023-04-03T01:52:49;91467.16;;;6.95;56.78
61963;BME280;47927;42.646;23.096;2023-04-03T01:55:15;91414.50;;;6.50;56.80
61963;BME280;47927;42.646;23.096;2023-04-03T01:57:40;91494.53;;;6.96;57.58
61963;BME280;47927;42.646;23.096;2023-04-03T02:00:07;91486.66;;;7.19;56.77
61963;BME280;47927;42.646;23.096;2023-04-03T02:02:38;91473.88;;;7.37;55.75
61963;BME280;47927;42.646;23.096;2023-04-03T02:05:04;91465.50;;;7.47;55.30
61963;BME280;47927;42.646;23.096;2023-04-03T02:07:30;91480.34;;;7.50;55.74
61963;BME280;47927;42.646;23.096;2023-04-03T02:09:56;91486.16;;;7.81;55.29
61963;BME280;47927;42.646;23.096;2023-04-03T02:12:22;91493.97;;;7.88;54.36
61963;BME280;47927;42.646;23.096;2023-04-03T02:14:47;91461.13;;;7.58;52.91
61963;BME280;47927;42.646;23.096;2023-04-03T02:17:13;91487.66;;;7.41;53.87
61963;BME280;47927;42.646;23.096;2023-04-03T02:19:38;91489.75;;;7.31;54.55
61963;BME280;47927;42.646;23.096;2023-04-03T02:22:05;91416.31;;;6.46;56.19
61963;BME280;47927;42.646;23.096;2023-04-03T02:24:31;91482.63;;;6.88;55.83
61963;BME280;47927;42.646;23.096;2023-04-03T02:26:58;91476.66;;;6.83;55.72
61963;BME280;47927;42.646;23.096;2023-04-03T02:29:24;91482.41;;;7.00;55.55
61963;BME280;47927;42.646;23.096;2023-04-03T02:31:50;91433.56;;;6.68;55.56
61963;BME280;47927;42.646;23.096;2023-04-03T02:34:16;91425.38;;;6.62;55.50
61963;BME280;47927;42.646;23.096;2023-04-03T02:36:43;91469.75;;;6.95;55.32
61963;BME280;47927;42.646;23.096;2023-04-03T02:39:11;91455.88;;;6.46;56.46
61963;BME280;47927;42.646;23.096;2023-04-03T02:41:36;91472.41;;;6.68;55.46
61963;BME280;47927;42.646;23.096;2023-04-03T02:44:08;91448.19;;;6.53;54.87
61963;BME280;47927;42.646;23.096;2023-04-03T02:46:34;91466.41;;;6.60;54.28
61963;BME280;47927;42.646;23.096;2023-04-03T02:49:01;91460.31;;;6.19;55.27
61963;BME280;47927;42.646;23.096;2023-04-03T02:51:27;91414.25;;;5.79;56.45
61963;BME280;47927;42.646;23.096;2023-04-03T02:53:53;91451.16;;;5.99;57.41
61963;BME280;47927;42.646;23.096;2023-04-03T02:56:22;91461.25;;;6.07;56.91
61963;BME280;47927;42.646;23.096;2023-04-03T02:58:48;91462.41;;;6.10;57.96
61963;BME280;47927;42.646;23.096;2023-04-03T03:01:15;91456.28;;;6.22;56.82
61963;BME280;47927;42.646;23.096;2023-04-03T03:03:40;91432.41;;;5.82;57.47
61963;BME280;47927;42.646;23.096;2023-04-03T03:06:09;91460.44;;;6.03;57.68
61963;BME280;47927;42.646;23.096;2023-04-03T03:08:35;91461.78;;;6.20;56.82
61963;BME280;47927;42.646;23.096;2023-04-03T03:11:01;91405.53;;;5.87;56.55
61963;BME280;47927;42.646;23.096;2023-04-03T03:13:27;91448.38;;;6.11;56.58
61963;BME280;47927;42.646;23.096;2023-04-03T03:15:52;91444.78;;;6.19;56.34
61963;BME280;47927;42.646;23.096;2023-04-03T03:18:18;91384.78;;;5.57;56.23
61963;BME280;47927;42.646;23.096;2023-04-03T03:20:44;91448.38;;;5.88;55.63
61963;BME280;47927;42.646;23.096;2023-04-03T03:23:10;91444.41;;;5.71;54.80
61963;BME280;47927;42.646;23.096;2023-04-03T03:25:39;91443.06;;;5.54;55.78
61963;BME280;47927;42.646;23.096;2023-04-03T03:28:07;91378.66;;;4.76;58.01
61963;BME280;47927;42.646;23.096;2023-04-03T03:30:33;91445.91;;;5.49;59.06
61963;BME280;47927;42.646;23.096;2023-04-03T03:32:59;91442.81;;;5.63;59.65
61963;BME280;47927;42.646;23.096;2023-04-03T03:35:24;91407.56;;;5.51;59.00
61963;BME280;47927;42.646;23.096;2023-04-03T03:37:50;91441.34;;;5.88;58.96
61963;BME280;47927;42.646;23.096;2023-04-03T03:40:16;91418.22;;;5.96;58.30
61963;BME280;47927;42.646;23.096;2023-04-03T03:42:42;91436.91;;;6.12;57.43
61963;BME280;47927;42.646;23.096;2023-04-03T03:45:08;91435.22;;;6.23;57.25
61963;BME280;47927;42.646;23.096;2023-04-03T03:47:34;91371.16;;;5.60;56.29
61963;BME280;47927;42.646;23.096;2023-04-03T03:49:59;91433.31;;;5.70;57.68
61963;BME280;47927;42.646;23.096;2023-04-03T03:52:25;91410.38;;;5.42;58.43
61963;BME280;47927;42.646;23.096;2023-04-03T03:54:51;91436.78;;;5.78;58.16
61963;BME280;47927;42.646;23.096;2023-04-03T03:57:17;91438.03;;;5.88;56.16
61963;BME280;47927;42.646;23.096;2023-04-03T03:59:43;91434.59;;;5.80;55.83
61963;BME280;47927;42.646;23.096;2023-04-03T04:02:10;91390.13;;;5.21;58.55
61963;BME280;47927;42.646;23.096;2023-04-03T04:04:36;91428.41;;;5.62;58.30
61963;BME280;47927;42.646;23.096;2023-04-03T04:07:02;91433.41;;;5.74;58.41
61963;BME280;47927;42.646;23.096;2023-04-03T04:09:29;91435.91;;;5.93;58.61
61963;BME280;47927;42.646;23.096;2023-04-03T04:11:55;91366.47;;;5.42;58.39
61963;BME280;47927;42.646;23.096;2023-04-03T04:14:21;91441.53;;;5.99;58.62
61963;BME280;47927;42.646;23.096;2023-04-03T04:16:47;91448.06;;;6.16;58.06
61963;BME280;47927;42.646;23.096;2023-04-03T04:19:19;91459.53;;;6.19;58.90
61963;BME280;47927;42.646;23.096;2023-04-03T04:21:48;91439.41;;;6.31;58.95
61963;BME280;47927;42.646;23.096;2023-04-03T04:24:14;91457.94;;;6.64;57.50
61963;BME280;47927;42.646;23.096;2023-04-03T04:26:39;91452.88;;;6.74;57.12
61963;BME280;47927;42.646;23.096;2023-04-03T04:29:09;91394.28;;;6.29;56.86
61963;BME280;47927;42.646;23.096;2023-04-03T04:31:35;91449.72;;;6.58;56.49
61963;BME280;47927;42.646;23.096;2023-04-03T04:34:01;91423.47;;;6.29;55.87
61963;BME280;47927;42.646;23.096;2023-04-03T04:36:27;91453.25;;;6.16;58.99
61963;BME280;47927;42.646;23.096;2023-04-03T04:38:52;91458.16;;;6.25;58.38
61963;BME280;47927;42.646;23.096;2023-04-03T04:41:20;91460.56;;;6.37;59.65
61963;BME280;47927;42.646;23.096;2023-04-03T04:43:51;91470.44;;;6.58;56.50
61963;BME280;47927;42.646;23.096;2023-04-03T04:46:17;91462.47;;;6.74;57.83
61963;BME280;47927;42.646;23.096;2023-04-03T04:48:48;91444.22;;;6.63;58.04
61963;BME280;47927;42.646;23.096;2023-04-03T04:51:15;91482.41;;;7.00;58.51
61963;BME280;47927;42.646;23.096;2023-04-03T04:53:42;91483.47;;;6.99;59.41
61963;BME280;47927;42.646;23.096;2023-04-03T04:56:10;91488.38;;;7.07;59.82
61963;BME280;47927;42.646;23.096;2023-04-03T04:58:37;91489.94;;;7.49;58.63
61963;BME280;47927;42.646;23.096;2023-04-03T05:01:06;91490.94;;;7.79;58.05
61963;BME280;47927;42.646;23.096;2023-04-03T05:03:35;91463.94;;;7.80;56.89
61963;BME280;47927;42.646;23.096;2023-04-03T05:06:02;91489.13;;;8.31;56.31
61963;BME280;47927;42.646;23.096;2023-04-03T05:08:30;91501.72;;;8.29;55.21
61963;BME280;47927;42.646;23.096;2023-04-03T05:10:56;91499.53;;;8.34;56.74
61963;BME280;47927;42.646;23.096;2023-04-03T05:13:22;91509.34;;;8.59;56.57
61963;BME280;47927;42.646;23.096;2023-04-03T05:15:48;91509.81;;;8.72;55.77
61963;BME280;47927;42.646;23.096;2023-04-03T05:18:14;91495.06;;;8.90;56.02
61963;BME280;47927;42.646;23.096;2023-04-03T05:20:39;91507.41;;;9.18;55.51
61963;BME280;47927;42.646;23.096;2023-04-03T05:23:05;91451.97;;;8.78;56.27
61963;BME280;47927;42.646;23.096;2023-04-03T05:25:33;91512.72;;;9.47;55.76
61963;BME280;47927;42.646;23.096;2023-04-03T05:27:59;91508.31;;;9.87;54.73
61963;BME280;47927;42.646;23.096;2023-04-03T05:30:25;91492.75;;;10.15;53.76
61963;BME280;47927;42.646;23.096;2023-04-03T05:32:52;91488.25;;;10.19;54.05
61963;BME280;47927;42.646;23.096;2023-04-03T05:35:24;91485.28;;;10.46;52.82
61963;BME280;47927;42.646;23.096;2023-04-03T05:37:53;91459.22;;;10.64;52.09
61963;BME280;47927;42.646;23.096;2023-04-03T05:40:19;91438.44;;;10.24;52.56
61963;BME280;47927;42.646;23.096;2023-04-03T05:42:47;91413.91;;;10.36;51.88
61963;BME280;47927;42.646;23.096;2023-04-03T05:45:14;91449.59;;;10.18;52.33
61963;BME280;47927;42.646;23.096;2023-04-03T05:47:39;91472.28;;;10.53;52.60
61963;BME280;47927;42.646;23.096;2023-04-03T05:50:06;91452.91;;;10.68;51.48
61963;BME280;47927;42.646;23.096;2023-04-03T05:52:37;91449.78;;;11.06;50.49
61963;BME280;47927;42.646;23.096;2023-04-03T05:55:03;91421.56;;;10.90;50.74
61963;BME280;47927;42.646;23.096;2023-04-03T05:57:32;91456.41;;;11.21;50.24
61963;BME280;47927;42.646;23.096;2023-04-03T05:59:57;91465.50;;;10.81;51.34
61963;BME280;47927;42.646;23.096;2023-04-03T06:02:24;91470.66;;;10.99;51.24
61963;BME280;47927;42.646;23.096;2023-04-03T06:04:50;91430.16;;;10.72;50.73
61963;BME280;47927;42.646;23.096;2023-04-03T06:07:21;91461.28;;;11.12;50.83
61963;BME280;47927;42.646;23.096;2023-04-03T06:09:51;91455.31;;;11.22;50.36
61963;BME280;47927;42.646;23.096;2023-04-03T06:12:17;91441.94;;;11.13;50.76
61963;BME280;47927;42.646;23.096;2023-04-03T06:14:43;91446.69;;;11.29;50.92
61963;BME280;47927;42.646;23.096;2023-04-03T06:17:09;91375.00;;;10.95;49.87
61963;BME280;47927;42.646;23.096;2023-04-03T06:19:35;91435.13;;;11.37;49.48
61963;BME280;47927;42.646;23.096;2023-04-03T06:22:01;91427.59;;;11.50;48.77
61963;BME280;47927;42.646;23.096;2023-04-03T06:24:29;91447.63;;;11.63;48.86
61963;BME280;47927;42.646;23.096;2023-04-03T06:26:55;91434.50;;;11.78;48.33
61963;BME280;47927;42.646;23.096;2023-04-03T06:29:21;91442.03;;;11.65;48.82
61963;BME280;47927;42.646;23.096;2023-04-03T06:31:47;91428.38;;;11.43;48.81
61963;BME280;47927;42.646;23.096;2023-04-03T06:34:13;91448.44;;;11.53;48.96
61963;BME280;47927;42.646;23.096;2023-04-03T06:36:39;91439.50;;;11.54;49.11
61963;BME280;47927;42.646;23.096;2023-04-03T06:39:06;91440.69;;;11.98;47.94
61963;BME280;47927;42.646;23.096;2023-04-03T06:41:32;91448.38;;;12.16;47.08
61963;BME280;47927;42.646;23.096;2023-04-03T06:43:58;91449.97;;;12.48;46.42
61963;BME280;47927;42.646;23.096;2023-04-03T06:46:25;91453.44;;;12.75;45.74
61963;BME280;47927;42.646;23.096;2023-04-03T06:48:51;91447.16;;;12.69;45.33
61963;BME280;47927;42.646;23.096;2023-04-03T06:51:26;91459.81;;;12.74;45.11
61963;BME280;47927;42.646;23.096;2023-04-03T06:53:53;91467.03;;;13.62;43.68
61963;BME280;47927;42.646;23.096;2023-04-03T06:56:19;91468.38;;;13.74;43.46
61963;BME280;47927;42.646;23.096;2023-04-03T06:58:45;91383.59;;;13.10;42.64
61963;BME280;47927;42.646;23.096;2023-04-03T07:01:14;91474.91;;;13.59;43.23
61963;BME280;47927;42.646;23.096;2023-04-03T07:03:40;91476.41;;;14.14;41.84
61963;BME280;47927;42.646;23.096;2023-04-03T07:06:06;91474.00;;;14.47;41.66
61963;BME280;47927;42.646;23.096;2023-04-03T07:08:33;91475.72;;;14.10;42.10
61963;BME280;47927;42.646;23.096;2023-04-03T07:10:59;91476.00;;;13.88;41.80
61963;BME280;47927;42.646;23.096;2023-04-03T07:13:24;91466.78;;;14.31;41.38
61963;BME280;47927;42.646;23.096;2023-04-03T07:15:50;91468.56;;;14.61;40.43
61963;BME280;47927;42.646;23.096;2023-04-03T07:18:16;91472.75;;;14.98;40.29
61963;BME280;47927;42.646;23.096;2023-04-03T07:20:45;91468.44;;;15.68;38.43
61963;BME280;47927;42.646;23.096;2023-04-03T07:23:11;91466.53;;;15.88;37.59
61963;BME280;47927;42.646;23.096;2023-04-03T07:25:37;91422.59;;;15.53;37.96
61963;BME280;47927;42.646;23.096;2023-04-03T07:28:07;91352.84;;;14.99;37.45
61963;BME280;47927;42.646;23.096;2023-04-03T07:30:34;91410.94;;;15.90;36.79
61963;BME280;47927;42.646;23.096;2023-04-03T07:33:00;91453.31;;;15.92;36.64
61963;BME280;47927;42.646;23.096;2023-04-03T07:35:26;91445.81;;;16.23;35.43
61963;BME280;47927;42.646;23.096;2023-04-03T07:37:51;91408.13;;;15.97;36.55
61963;BME280;47927;42.646;23.096;2023-04-03T07:40:17;91441.13;;;16.47;34.80
61963;BME280;47927;42.646;23.096;2023-04-03T07:42:43;91435.63;;;15.76;36.17
61963;BME280;47927;42.646;23.096;2023-04-03T07:45:08;91419.13;;;15.76;36.61
61963;BME280;47927;42.646;23.096;2023-04-03T07:47:34;91427.28;;;15.25;36.65
61963;BME280;47927;42.646;23.096;2023-04-03T07:50:00;91441.09;;;14.89;37.12
61963;BME280;47927;42.646;23.096;2023-04-03T07:52:25;91392.72;;;14.27;38.17
61963;BME280;47927;42.646;23.096;2023-04-03T07:54:51;91421.50;;;14.07;39.33
61963;BME280;47927;42.646;23.096;2023-04-03T07:57:16;91417.31;;;13.62;40.17
61963;BME280;47927;42.646;23.096;2023-04-03T07:59:42;91396.06;;;14.07;39.09
61963;BME280;47927;42.646;23.096;2023-04-03T08:02:11;91410.84;;;13.94;39.33
61963;BME280;47927;42.646;23.096;2023-04-03T08:04:37;91345.94;;;13.58;39.43
61963;BME280;47927;42.646;23.096;2023-04-03T08:07:02;91362.00;;;13.84;38.87
61963;BME280;47927;42.646;23.096;2023-04-03T08:09:28;91356.31;;;13.89;39.14
61963;BME280;47927;42.646;23.096;2023-04-03T08:11:53;91407.03;;;13.99;39.47
61963;BME280;47927;42.646;23.096;2023-04-03T08:14:20;91358.69;;;13.56;39.71
61963;BME280;47927;42.646;23.096;2023-04-03T08:16:47;91395.75;;;14.25;39.69
61963;BME280;47927;42.646;23.096;2023-04-03T08:19:14;91382.22;;;13.83;39.69
61963;BME280;47927;42.646;23.096;2023-04-03T08:21:41;91378.16;;;14.26;39.28
61963;BME280;47927;42.646;23.096;2023-04-03T08:24:09;91397.91;;;13.60;39.93
61963;BME280;47927;42.646;23.096;2023-04-03T08:26:35;91393.94;;;13.17;41.01
61963;BME280;47927;42.646;23.096;2023-04-03T08:29:01;91383.81;;;12.92;41.49
61963;BME280;47927;42.646;23.096;2023-04-03T08:31:27;91397.78;;;12.44;42.35
61963;BME280;47927;42.646;23.096;2023-04-03T08:33:53;91394.34;;;12.51;43.20
61963;BME280;47927;42.646;23.096;2023-04-03T08:36:23;91383.53;;;12.49;42.98
61963;BME280;47927;42.646;23.096;2023-04-03T08:38:49;91322.16;;;11.92;43.56
61963;BME280;47927;42.646;23.096;2023-04-03T08:46:32;91389.75;;;13.54;41.07
61963;BME280;47927;42.646;23.096;2023-04-03T08:49:01;91368.41;;;13.29;41.22
61963;BME280;47927;42.646;23.096;2023-04-03T08:51:27;91379.94;;;13.85;41.05
61963;BME280;47927;42.646;23.096;2023-04-03T08:54:04;91364.09;;;14.40;40.48
61963;BME280;47927;42.646;23.096;2023-04-03T08:56:33;91369.22;;;14.23;39.54
61963;BME280;47927;42.646;23.096;2023-04-03T08:59:04;91376.19;;;13.36;40.78
61963;BME280;47927;42.646;23.096;2023-04-03T09:01:35;91377.84;;;12.92;42.07
61963;BME280;47927;42.646;23.096;2023-04-03T09:04:03;91311.44;;;12.86;41.89
61963;BME280;47927;42.646;23.096;2023-04-03T09:06:36;91366.09;;;13.61;41.13
61963;BME280;47927;42.646;23.096;2023-04-03T09:14:19;91377.81;;;14.00;39.25
61963;BME280;47927;42.646;23.096;2023-04-03T09:16:57;91371.75;;;11.96;43.19
61963;BME280;47927;42.646;23.096;2023-04-03T09:21:57;91360.41;;;12.82;41.77
61963;BME280;47927;42.646;23.096;2023-04-03T09:24:24;91338.44;;;12.75;41.09
61963;BME280;47927;42.646;23.096;2023-04-03T09:26:54;91334.09;;;12.96;40.54
61963;BME280;47927;42.646;23.096;2023-04-03T09:29:24;91356.31;;;13.38;40.72
61963;BME280;47927;42.646;23.096;2023-04-03T09:31:53;91343.69;;;14.27;38.52
61963;BME280;47927;42.646;23.096;2023-04-03T09:34:24;91336.28;;;14.46;37.88
61963;BME280;47927;42.646;23.096;2023-04-03T09:36:53;91340.06;;;14.21;38.52
61963;BME280;47927;42.646;23.096;2023-04-03T09:39:26;91336.53;;;14.91;36.70
61963;BME280;47927;42.646;23.096;2023-04-03T09:41:58;91337.88;;;14.79;37.20
61963;BME280;47927;42.646;23.096;2023-04-03T09:44:28;91331.53;;;14.61;36.88
61963;BME280;47927;42.646;23.096;2023-04-03T09:46:53;91336.84;;;14.13;38.28
61963;BME280;47927;42.646;23.096;2023-04-03T09:49:19;91322.66;;;13.40;40.25
61963;BME280;47927;42.646;23.096;2023-04-03T09:51:45;91278.69;;;13.32;39.34
61963;BME280;47927;42.646;23.096;2023-04-03T09:57:01;91318.69;;;13.56;39.72
61963;BME280;47927;42.646;23.096;2023-04-03T09:59:27;91327.59;;;13.35;40.34
61963;BME280;47927;42.646;23.096;2023-04-03T10:02:21;91330.84;;;13.15;41.38
61963;BME280;47927;42.646;23.096;2023-04-03T10:04:47;91274.84;;;13.63;38.96
61963;BME280;47927;42.646;23.096;2023-04-03T10:07:36;91338.75;;;12.81;41.22
61963;BME280;47927;42.646;23.096;2023-04-03T10:12:42;91317.25;;;13.28;41.09
61963;BME280;47927;42.646;23.096;2023-04-03T10:15:13;91264.38;;;12.59;41.92
61963;BME280;47927;42.646;23.096;2023-04-03T10:17:51;91329.59;;;12.66;42.59
61963;BME280;47927;42.646;23.096;2023-04-03T10:20:42;91324.16;;;13.41;41.07
61963;BME280;47927;42.646;23.096;2023-04-03T10:23:27;91311.47;;;13.87;39.70
61963;BME280;47927;42.646;23.096;2023-04-03T10:34:46;91314.50;;;13.08;42.01
61963;BME280;47927;42.646;23.096;2023-04-03T10:37:27;91309.94;;;12.85;41.70
61963;BME280;47927;42.646;23.096;2023-04-03T10:40:17;91307.69;;;12.87;42.44
61963;BME280;47927;42.646;23.096;2023-04-03T10:43:04;91300.69;;;13.34;40.99
61963;BME280;47927;42.646;23.096;2023-04-03T10:53:23;91295.22;;;12.37;42.75
61963;BME280;47927;42.646;23.096;2023-04-03T10:58:30;91305.00;;;12.32;43.11
61963;BME280;47927;42.646;23.096;2023-04-03T11:01:02;91314.19;;;12.44;43.11
61963;BME280;47927;42.646;23.096;2023-04-03T11:03:34;91316.69;;;12.21;43.62
61963;BME280;47927;42.646;23.096;2023-04-03T11:06:04;91309.44;;;11.98;44.40
61963;BME280;47927;42.646;23.096;2023-04-03T11:11:09;91310.63;;;12.27;43.97
61963;BME280;47927;42.646;23.096;2023-04-03T11:13:49;91306.78;;;12.39;43.13
61963;BME280;47927;42.646;23.096;2023-04-03T11:16:21;91305.09;;;11.35;45.80
61963;BME280;47927;42.646;23.096;2023-04-03T11:19:00;91304.91;;;11.60;45.38
61963;BME280;47927;42.646;23.096;2023-04-03T11:21:57;91297.16;;;11.50;46.20
61963;BME280;47927;42.646;23.096;2023-04-03T11:24:28;91297.78;;;11.64;46.17
61963;BME280;47927;42.646;23.096;2023-04-03T11:26:58;91237.63;;;10.96;46.42
61963;BME280;47927;42.646;23.096;2023-04-03T11:29:32;91267.88;;;10.83;47.50
61963;BME280;47927;42.646;23.096;2023-04-03T11:37:15;91303.09;;;11.54;48.29
61963;BME280;47927;42.646;23.096;2023-04-03T11:39:54;91219.47;;;11.30;47.59
61963;BME280;47927;42.646;23.096;2023-04-03T11:42:27;91294.72;;;11.28;49.57
61963;BME280;47927;42.646;23.096;2023-04-03T11:47:54;91291.59;;;10.95;51.33
61963;BME280;47927;42.646;23.096;2023-04-03T11:50:44;91308.59;;;10.48;53.04
61963;BME280;47927;42.646;23.096;2023-04-03T11:58:18;91309.41;;;10.23;55.61
61963;BME280;47927;42.646;23.096;2023-04-03T12:16:41;91281.69;;;9.38;59.76
61963;BME280;47927;42.646;23.096;2023-04-03T12:26:51;91257.03;;;10.07;60.46
61963;BME280;47927;42.646;23.096;2023-04-03T12:29:35;91288.75;;;9.16;62.82
61963;BME280;47927;42.646;23.096;2023-04-03T12:35:28;91268.69;;;9.09;64.13
61963;BME280;47927;42.646;23.096;2023-04-03T12:46:45;91199.28;;;8.63;66.48
61963;BME280;47927;42.646;23.096;2023-04-03T12:49:38;91208.88;;;8.38;67.35
61963;BME280;47927;42.646;23.096;2023-04-03T12:52:15;91231.47;;;8.34;67.39
61963;BME280;47927;42.646;23.096;2023-04-03T12:54:42;91211.31;;;7.88;68.94
61963;BME280;47927;42.646;23.096;2023-04-03T12:57:12;91215.75;;;7.84;69.36
61963;BME280;47927;42.646;23.096;2023-04-03T12:59:38;91244.25;;;7.76;69.14
61963;BME280;47927;42.646;23.096;2023-04-03T13:02:35;91158.34;;;7.05;70.64
61963;BME280;47927;42.646;23.096;2023-04-03T13:05:08;91208.81;;;8.20;69.59
61963;BME280;47927;42.646;23.096;2023-04-03T13:07:37;91213.31;;;8.34;69.14
61963;BME280;47927;42.646;23.096;2023-04-03T13:10:15;91206.63;;;8.26;68.84
61963;BME280;47927;42.646;23.096;2023-04-03T13:15:20;91102.69;;;7.58;67.91
61963;BME280;47927;42.646;23.096;2023-04-03T13:17:48;91191.34;;;7.15;71.71
61963;BME280;47927;42.646;23.096;2023-04-03T13:20:25;91178.78;;;7.21;71.87
61963;BME280;47927;42.646;23.096;2023-04-03T13:22:58;91193.41;;;6.92;73.56
61963;BME280;47927;42.646;23.096;2023-04-03T13:25:28;91190.66;;;6.70;74.41
61963;BME280;47927;42.646;23.096;2023-04-03T13:27:56;91099.38;;;6.22;76.41
61963;BME280;47927;42.646;23.096;2023-04-03T13:30:27;91181.09;;;6.78;76.03
61963;BME280;47927;42.646;23.096;2023-04-03T13:32:55;91171.47;;;6.30;77.52
61963;BME280;47927;42.646;23.096;2023-04-03T13:35:30;91159.69;;;6.36;79.23
61963;BME280;47927;42.646;23.096;2023-04-03T13:38:41;91170.16;;;6.51;77.66
61963;BME280;47927;42.646;23.096;2023-04-03T13:40:51;91158.28;;;6.43;78.27
61963;BME280;47927;42.646;23.096;2023-04-03T13:43:25;91107.66;;;6.01;77.25
61963;BME280;47927;42.646;23.096;2023-04-03T13:48:42;91174.72;;;6.24;79.25
61963;BME280;47927;42.646;23.096;2023-04-03T13:54:16;91165.84;;;6.21;78.71
61963;BME280;47927;42.646;23.096;2023-04-03T13:56:43;91147.50;;;5.96;79.93
61963;BME280;47927;42.646;23.096;2023-04-03T14:04:19;91144.69;;;6.08;79.65
61963;BME280;47927;42.646;23.096;2023-04-03T14:06:46;91163.13;;;6.48;78.41
61963;BME280;47927;42.646;23.096;2023-04-03T14:09:13;91178.41;;;6.19;79.50
61963;BME280;47927;42.646;23.096;2023-04-03T14:11:39;91129.44;;;6.41;79.16
61963;BME280;47927;42.646;23.096;2023-04-03T14:14:32;91137.06;;;6.26;78.13
61963;BME280;47927;42.646;23.096;2023-04-03T14:17:01;91144.34;;;6.10;77.96
61963;BME280;47927;42.646;23.096;2023-04-03T14:19:33;91045.81;;;5.07;80.99
61963;BME280;47927;42.646;23.096;2023-04-03T14:22:00;91138.41;;;5.76;81.35
61963;BME280;47927;42.646;23.096;2023-04-03T14:24:26;91102.81;;;5.24;80.20
61963;BME280;47927;42.646;23.096;2023-04-03T14:26:54;91177.44;;;5.67;81.44
61963;BME280;47927;42.646;23.096;2023-04-03T14:29:20;91142.56;;;6.21;80.00
61963;BME280;47927;42.646;23.096;2023-04-03T14:31:48;91085.25;;;5.75;79.72
61963;BME280;47927;42.646;23.096;2023-04-03T14:34:14;91114.13;;;5.84;79.06
61963;BME280;47927;42.646;23.096;2023-04-03T14:36:42;91112.28;;;5.84;79.10
61963;BME280;47927;42.646;23.096;2023-04-03T14:39:16;91136.31;;;5.88;79.53
61963;BME280;47927;42.646;23.096;2023-04-03T14:41:42;91124.28;;;6.00;77.98
61963;BME280;47927;42.646;23.096;2023-04-03T14:44:08;91137.94;;;6.00;78.63
61963;BME280;47927;42.646;23.096;2023-04-03T14:46:39;91074.59;;;5.42;78.74
61963;BME280;47927;42.646;23.096;2023-04-03T14:49:25;91113.22;;;5.65;81.16
61963;BME280;47927;42.646;23.096;2023-04-03T14:51:51;91112.91;;;6.08;80.19
61963;BME280;47927;42.646;23.096;2023-04-03T14:54:20;91106.66;;;5.75;80.25
61963;BME280;47927;42.646;23.096;2023-04-03T14:56:51;91042.72;;;5.28;80.50